Terminal Aerodrome Forecast
Issued by NWS

Home | Current Version | Previous Version | Text Only | Print | Product List | Glossary On
Versions: 1 2 3 4 5 6 7 8 9 10 11 12 13 14 15 16 17 18 19 20 21 22 23 24 25 26 27 28 29 30 31 32 33 34 35 36
000
FTUS43 KFGF 231140
TAFDVL
TAF
KDVL 231140Z 2312/2412 17009KT P6SM BKN250
     FM231500 18005KT P6SM OVC070
      TEMPO 2315/2319 -RA
     FM232100 25004KT P6SM OVC050
     FM232200 33004KT P6SM OVC045
     FM240200 34005KT P6SM OVC045
     FM240300 34007KT P6SM OVC045
     FM240700 01009KT P6SM BKN040
     FM241100 01008KT P6SM SCT030=

USA.gov is the U.S. government's official web portal to all federal, state and local government web resources and services.